createdAt,value
2022-08-14T00:02:27.094Z,100927.03
2022-08-14T00:04:55.671Z,100922.72
2022-08-14T00:07:24.991Z,100923.91
2022-08-14T00:10:01.771Z,100922.16
2022-08-14T00:12:53.433Z,100922.38
2022-08-14T00:15:29.665Z,100924.28
2022-08-14T00:18:06.746Z,100941.53
2022-08-14T00:20:42.887Z,100939.16
2022-08-14T00:23:16.723Z,100941.06
2022-08-14T00:25:53.820Z,100935.88
2022-08-14T00:28:35.261Z,100929.94
2022-08-14T00:31:06.561Z,100939.97
2022-08-14T00:33:51.955Z,100934.69
2022-08-14T00:36:36.688Z,100936.50
2022-08-14T00:39:15.010Z,100935.81
2022-08-14T00:41:46.668Z,100927.03
2022-08-14T00:44:15.254Z,100911.81
2022-08-14T00:46:54.593Z,100905.66
2022-08-14T00:49:30.004Z,100903.19
2022-08-14T00:52:00.557Z,100898.97
2022-08-14T00:54:30.973Z,100892.78
2022-08-14T00:56:58.961Z,100898.38
2022-08-14T00:59:28.967Z,100889.50
2022-08-14T01:01:59.724Z,100905.91
2022-08-14T01:04:38.383Z,100901.47
2022-08-14T01:07:22.032Z,100909.56
2022-08-14T01:09:54.279Z,100898.75
2022-08-14T01:12:26.979Z,100903.31
2022-08-14T01:14:59.531Z,100899.75
2022-08-14T01:17:50.809Z,100892.72
2022-08-14T01:20:39.949Z,100884.75
2022-08-14T01:23:16.047Z,100892.03
2022-08-14T01:25:47.706Z,100882.53
2022-08-14T01:28:47.251Z,100883.59
2022-08-14T01:31:05.991Z,100876.50
2022-08-14T01:33:44.683Z,100874.53
2022-08-14T01:36:23.765Z,100874.53
2022-08-14T01:38:55.440Z,100874.34
2022-08-14T01:41:30.267Z,100871.53
2022-08-14T01:44:02.361Z,100874.13
2022-08-14T01:46:36.961Z,100872.31
2022-08-14T01:49:07.956Z,100872.22
2022-08-14T01:51:36.782Z,100863.34
2022-08-14T01:54:09.376Z,100868.94
2022-08-14T01:56:39.764Z,100854.50
2022-08-14T01:59:09.715Z,100860.47
2022-08-14T02:01:41.770Z,100861.22
2022-08-14T02:04:40.783Z,100856.63
2022-08-14T02:06:59.351Z,100856.31
2022-08-14T02:09:30.390Z,100858.03
2022-08-14T02:11:59.876Z,100842.72
2022-08-14T02:14:32.133Z,100853.72
2022-08-14T02:17:00.953Z,100858.25
2022-08-14T02:19:32.404Z,100856.50
2022-08-14T02:22:03.411Z,100848.53
2022-08-14T02:24:39.154Z,100844.09
2022-08-14T02:28:24.029Z,100847.00
2022-08-14T02:30:00.927Z,100848.34
2022-08-14T02:32:36.466Z,100846.75
2022-08-14T02:35:18.574Z,100842.63
2022-08-14T02:37:49.133Z,100850.13
2022-08-14T02:40:19.963Z,100841.47
2022-08-14T02:42:54.890Z,100836.19
2022-08-14T02:45:33.292Z,100837.22
2022-08-14T02:48:10.381Z,100831.84
2022-08-14T02:50:55.716Z,100844.47
2022-08-14T02:53:23.762Z,100834.75
2022-08-14T02:55:53.770Z,100834.75
2022-08-14T02:58:30.460Z,100829.56
2022-08-14T03:00:59.895Z,100828.03
2022-08-14T03:03:31.727Z,100830.78
2022-08-14T03:06:03.430Z,100825.69
2022-08-14T03:08:33.551Z,100821.28
2022-08-14T03:11:06.566Z,100821.56
2022-08-14T03:13:36.358Z,100815.56
2022-08-14T03:16:08.918Z,100821.06
2022-08-14T03:18:41.538Z,100824.91
2022-08-14T03:21:13.434Z,100819.72
2022-08-14T03:23:42.203Z,100817.22
2022-08-14T03:26:18.152Z,100811.06
2022-08-14T03:28:48.323Z,100813.97
2022-08-14T03:31:16.768Z,100808.78
2022-08-14T03:33:45.325Z,100813.38
2022-08-14T03:37:38.050Z,100808.28
2022-08-14T03:39:20.986Z,100800.31
2022-08-14T03:41:52.073Z,100804.16
2022-08-14T03:45:19.716Z,100800.88
2022-08-14T03:47:08.517Z,100787.78
2022-08-14T03:49:42.585Z,100793.00
2022-08-14T03:52:27.803Z,100788.75
2022-08-14T03:55:00.387Z,100789.53
2022-08-14T03:57:32.372Z,100787.78
2022-08-14T04:00:06.115Z,100788.56
2022-08-14T04:02:47.397Z,100780.38
2022-08-14T04:05:16.375Z,100775.00
2022-08-14T04:07:49.681Z,100782.97
2022-08-14T04:10:32.069Z,100782.97
2022-08-14T04:13:04.220Z,100783.88
2022-08-14T04:15:56.370Z,100783.94
2022-08-14T04:18:20.791Z,100781.44
2022-08-14T04:20:54.751Z,100774.31
2022-08-14T04:23:29.998Z,100766.34
2022-08-14T04:26:02.144Z,100767.50
2022-08-14T04:29:01.991Z,100776.63
2022-08-14T04:32:56.394Z,100767.78
2022-08-14T04:34:20.925Z,100760.47
2022-08-14T04:37:13.702Z,100768.56
2022-08-14T04:40:08.710Z,100766.84
2022-08-14T04:42:54.968Z,100764.91
2022-08-14T04:45:29.497Z,100768.19
2022-08-14T04:48:39.974Z,100761.84
2022-08-14T04:51:06.489Z,100758.97
2022-08-14T04:53:42.819Z,100758.66
2022-08-14T04:56:31.553Z,100759.44
2022-08-14T04:59:09.629Z,100744.94
2022-08-14T05:01:44.744Z,100740.41
2022-08-14T05:04:16.087Z,100749.91
2022-08-14T05:06:44.328Z,100756.72
2022-08-14T05:09:14.373Z,100738.75
2022-08-14T05:11:44.347Z,100740.47
2022-08-14T05:14:42.850Z,100740.94
2022-08-14T05:17:02.392Z,100743.44
2022-08-14T05:19:32.120Z,100744.41
2022-08-14T05:22:17.287Z,100734.13
2022-08-14T05:24:49.703Z,100724.72
2022-08-14T05:27:23.228Z,100732.78
2022-08-14T05:29:53.848Z,100729.78
2022-08-14T05:32:27.307Z,100725.72
2022-08-14T05:34:58.028Z,100724.47
2022-08-14T05:37:26.577Z,100720.41
2022-08-14T05:39:54.928Z,100715.97
2022-08-14T05:42:29.037Z,100716.53
2022-08-14T05:44:57.725Z,100718.06
2022-08-14T05:47:28.583Z,100710.53
2022-08-14T05:49:58.372Z,100700.19
2022-08-14T05:52:39.128Z,100703.75
2022-08-14T05:55:10.110Z,100715.00
2022-08-14T05:57:47.968Z,100706.16
2022-08-14T06:00:25.003Z,100714.81
2022-08-14T06:03:00.436Z,100706.41
2022-08-14T06:05:29.653Z,100712.66
2022-08-14T06:07:58.707Z,100704.47
2022-08-14T06:10:28.257Z,100708.19
2022-08-14T06:12:57.982Z,100705.63
2022-08-14T06:15:30.016Z,100703.31
2022-08-14T06:18:01.778Z,100696.56
2022-08-14T06:20:30.647Z,100702.16
2022-08-14T06:22:59.284Z,100694.72
2022-08-14T06:25:28.134Z,100697.22
2022-08-14T06:27:58.003Z,100687.69
2022-08-14T06:30:30.395Z,100681.84
2022-08-14T06:33:17.991Z,100682.94
2022-08-14T06:35:47.227Z,100683.56
2022-08-14T06:38:20.427Z,100684.22
2022-08-14T06:40:52.217Z,100684.88
2022-08-14T06:43:28.405Z,100684.28
2022-08-14T06:46:00.961Z,100678.47
2022-08-14T06:48:32.750Z,100677.31
2022-08-14T06:51:03.426Z,100683.13
2022-08-14T06:53:31.339Z,100679.09
2022-08-14T06:56:01.980Z,100676.16
2022-08-14T06:58:31.886Z,100683.59
2022-08-14T07:01:27.073Z,100682.16
2022-08-14T07:04:22.915Z,100680.59
2022-08-14T07:06:51.436Z,100682.25
2022-08-14T07:09:43.865Z,100690.56
2022-08-14T07:12:35.001Z,100680.88
2022-08-14T07:15:17.569Z,100680.44
2022-08-14T07:17:46.938Z,100674.56
2022-08-14T07:20:30.865Z,100668.94
2022-08-14T07:23:07.812Z,100670.94
2022-08-14T07:25:38.189Z,100673.25
2022-08-14T07:28:21.647Z,100673.41
2022-08-14T07:30:52.767Z,100667.41
2022-08-14T07:33:29.860Z,100671.22
2022-08-14T07:36:01.430Z,100679.84
2022-08-14T07:38:35.476Z,100679.13
2022-08-14T07:41:14.308Z,100681.63
2022-08-14T07:43:47.446Z,100677.81
2022-08-14T07:46:29.614Z,100682.50
2022-08-14T07:48:59.306Z,100677.44
2022-08-14T07:51:34.324Z,100684.09
2022-08-14T07:54:06.913Z,100669.56
2022-08-14T07:56:47.993Z,100673.72
2022-08-14T07:59:18.482Z,100683.19
2022-08-14T08:01:51.680Z,100683.53
2022-08-14T08:04:38.365Z,100684.78
2022-08-14T08:07:07.756Z,100682.81
2022-08-14T08:09:37.312Z,100678.59
2022-08-14T08:12:09.363Z,100672.19
2022-08-14T08:14:56.335Z,100678.97
2022-08-14T08:17:42.395Z,100665.25
2022-08-14T08:20:20.204Z,100668.19
2022-08-14T08:22:55.751Z,100666.47
2022-08-14T08:25:24.741Z,100677.56
2022-08-14T08:27:57.515Z,100679.84
2022-08-14T08:30:26.518Z,100674.03
2022-08-14T08:32:56.704Z,100675.41
2022-08-14T08:35:46.644Z,100668.72
2022-08-14T08:39:17.195Z,100663.31
2022-08-14T08:41:11.242Z,100663.03
2022-08-14T08:43:46.346Z,100663.97
2022-08-14T08:46:23.858Z,100660.97
2022-08-14T08:51:25.275Z,100651.94
2022-08-14T08:54:03.059Z,100648.78
2022-08-14T08:56:40.044Z,100643.28
2022-08-14T08:59:20.361Z,100640.31
2022-08-14T09:01:52.260Z,100630.47
2022-08-14T09:04:24.765Z,100626.19
2022-08-14T09:07:10.547Z,100624.06
2022-08-14T09:09:54.499Z,100632.91
2022-08-14T09:12:32.557Z,100629.66
2022-08-14T09:15:02.424Z,100615.06
2022-08-14T09:17:30.802Z,100621.69
2022-08-14T09:20:02.167Z,100612.25
2022-08-14T09:22:47.654Z,100605.38
2022-08-14T09:25:19.869Z,100608.81
2022-08-14T09:27:48.689Z,100597.63
2022-08-14T09:30:32.706Z,100596.19
2022-08-14T09:33:22.513Z,100586.44
2022-08-14T09:36:18.492Z,100585.88
2022-08-14T09:38:50.536Z,100596.59
2022-08-14T09:42:20.351Z,100593.28
2022-08-14T09:44:45.800Z,100586.13
2022-08-14T09:47:15.302Z,100583.13
2022-08-14T09:49:43.953Z,100577.53
2022-08-14T09:52:32.931Z,100569.06
2022-08-14T09:55:03.266Z,100564.03
2022-08-14T09:57:33.510Z,100558.56
2022-08-14T10:00:28.947Z,100552.53
2022-08-14T10:03:05.548Z,100554.88
2022-08-14T10:05:39.308Z,100545.81
2022-08-14T10:08:26.140Z,100546.66
2022-08-14T10:10:57.131Z,100548.44
2022-08-14T10:13:42.887Z,100541.69
2022-08-14T10:16:27.653Z,100549.13
2022-08-14T10:19:07.250Z,100535.31
2022-08-14T10:21:38.741Z,100535.31
2022-08-14T10:24:36.316Z,100533.19
2022-08-14T10:27:06.716Z,100538.88
2022-08-14T10:29:38.410Z,100528.16
2022-08-14T10:32:17.852Z,100528.84
2022-08-14T10:35:13.757Z,100520.13
2022-08-14T10:37:46.572Z,100527.53
2022-08-14T10:40:38.329Z,100508.84
2022-08-14T10:43:04.366Z,100498.72
2022-08-14T10:45:46.232Z,100503.72
2022-08-14T10:48:24.461Z,100496.22
2022-08-14T10:51:04.853Z,100494.34
2022-08-14T10:53:39.070Z,100476.91
2022-08-14T10:56:21.656Z,100475.19
2022-08-14T10:59:02.655Z,100476.25
2022-08-14T11:01:41.073Z,100477.72
2022-08-14T11:04:27.696Z,100474.03
2022-08-14T11:06:56.832Z,100466.59
2022-08-14T11:09:26.478Z,100456.34
2022-08-14T11:12:36.295Z,100459.47
2022-08-14T11:14:59.226Z,100457.94
2022-08-14T11:17:32.688Z,100453.00
2022-08-14T11:20:06.949Z,100459.66
2022-08-14T11:22:57.904Z,100452.63
2022-08-14T11:25:43.362Z,100438.09
2022-08-14T11:28:18.582Z,100437.63
2022-08-14T11:30:53.445Z,100433.16
2022-08-14T11:33:24.977Z,100438.81
2022-08-14T11:35:53.679Z,100435.34
2022-08-14T11:38:29.142Z,100433.84
2022-08-14T11:40:58.209Z,100427.84
2022-08-14T11:43:29.440Z,100433.50
2022-08-14T11:45:58.801Z,100431.97
2022-08-14T11:49:02.167Z,100425.28
2022-08-14T11:51:30.741Z,100414.72
2022-08-14T11:54:08.289Z,100406.81
2022-08-14T11:56:37.349Z,100401.69
2022-08-14T11:59:10.303Z,100399.66
2022-08-14T12:01:41.418Z,100392.50
2022-08-14T12:04:32.480Z,100414.00
2022-08-14T12:07:03.478Z,100404.09
2022-08-14T12:09:32.956Z,100399.69
2022-08-14T12:12:01.386Z,100403.06
2022-08-14T12:14:35.066Z,100402.56
2022-08-14T12:17:11.860Z,100403.44
2022-08-14T12:19:51.318Z,100393.50
2022-08-14T12:22:35.329Z,100384.78
2022-08-14T12:25:10.045Z,100383.28
2022-08-14T12:27:52.689Z,100377.28
2022-08-14T12:30:35.993Z,100383.59
2022-08-14T12:33:09.166Z,100372.44
2022-08-14T12:35:43.365Z,100371.94
2022-08-14T12:38:19.438Z,100376.75
2022-08-14T12:40:50.189Z,100366.66
2022-08-14T12:43:19.806Z,100363.06
2022-08-14T12:45:51.139Z,100356.78
2022-08-14T12:48:31.543Z,100355.88
2022-08-14T12:51:01.656Z,100353.31
2022-08-14T12:53:38.912Z,100349.69
2022-08-14T12:56:22.211Z,100355.13
2022-08-14T12:58:57.924Z,100344.03
2022-08-14T13:01:28.777Z,100330.53
2022-08-14T13:04:07.259Z,100327.91
2022-08-14T13:06:37.595Z,100322.59
2022-08-14T13:09:11.088Z,100319.94
2022-08-14T13:11:44.925Z,100311.78
2022-08-14T13:14:17.889Z,100314.16
2022-08-14T13:16:50.391Z,100307.63
2022-08-14T13:19:19.988Z,100303.97
2022-08-14T13:21:58.670Z,100291.63
2022-08-14T13:24:33.651Z,100291.34
2022-08-14T13:27:04.724Z,100285.28
2022-08-14T13:29:40.470Z,100279.78
2022-08-14T13:32:10.002Z,100271.25
2022-08-14T13:34:40.637Z,100276.50
2022-08-14T13:37:11.020Z,100265.50
2022-08-14T13:39:56.116Z,100259.13
2022-08-14T13:42:30.838Z,100267.53
2022-08-14T13:45:06.423Z,100258.88
2022-08-14T13:47:35.826Z,100254.94
2022-08-14T13:50:07.611Z,100241.72
2022-08-14T13:52:52.652Z,100249.34
2022-08-14T13:55:23.975Z,100252.66
2022-08-14T13:58:03.573Z,100255.41
2022-08-14T14:00:35.690Z,100246.22
2022-08-14T14:03:21.954Z,100237.00
2022-08-14T14:05:54.349Z,100237.19
2022-08-14T14:08:46.748Z,100226.38
2022-08-14T14:11:16.055Z,100232.00
2022-08-14T14:13:45.986Z,100232.56
2022-08-14T14:16:26.679Z,100228.38
2022-08-14T14:19:09.852Z,100223.72
2022-08-14T14:21:40.736Z,100220.41
2022-08-14T14:24:14.786Z,100214.31
2022-08-14T14:26:46.521Z,100214.63
2022-08-14T14:29:16.798Z,100201.84
2022-08-14T14:31:49.295Z,100212.81
2022-08-14T14:34:29.082Z,100205.88
2022-08-14T14:37:04.504Z,100210.44
2022-08-14T14:40:50.704Z,100203.34
2022-08-14T14:42:31.858Z,100200.19
2022-08-14T14:45:06.112Z,100215.22
2022-08-14T14:47:35.173Z,100212.28
2022-08-14T14:50:06.545Z,100195.56
2022-08-14T14:52:37.243Z,100193.19
2022-08-14T14:55:12.299Z,100196.97
2022-08-14T14:57:41.069Z,100200.06
2022-08-14T15:00:18.572Z,100192.34
2022-08-14T15:02:49.735Z,100191.66
2022-08-14T15:05:20.903Z,100189.75
2022-08-14T15:07:52.983Z,100181.31
2022-08-14T15:10:27.089Z,100171.28
2022-08-14T15:13:00.035Z,100163.81
2022-08-14T15:15:28.518Z,100177.25
2022-08-14T15:18:01.108Z,100172.22
2022-08-14T15:20:30.623Z,100167.81
2022-08-14T15:23:00.749Z,100160.31
2022-08-14T15:25:31.883Z,100168.25
2022-08-14T15:28:00.781Z,100166.19
2022-08-14T15:30:32.478Z,100155.31
2022-08-14T15:33:00.709Z,100152.47
2022-08-14T15:35:29.677Z,100151.41
2022-08-14T15:37:57.681Z,100149.53
2022-08-14T15:40:26.470Z,100150.09
2022-08-14T15:42:55.998Z,100146.03
2022-08-14T15:45:23.893Z,100140.66
2022-08-14T15:47:53.100Z,100132.81
2022-08-14T15:50:21.026Z,100127.03
2022-08-14T15:52:51.593Z,100133.69
2022-08-14T15:55:23.023Z,100131.47
2022-08-14T15:58:03.537Z,100125.56
2022-08-14T16:00:53.093Z,100128.13
2022-08-14T16:03:24.860Z,100121.97
2022-08-14T16:05:56.532Z,100121.00
2022-08-14T16:08:29.539Z,100112.09
2022-08-14T16:10:59.726Z,100122.41
2022-08-14T16:13:42.004Z,100116.84
2022-08-14T16:16:49.067Z,100104.00
2022-08-14T16:19:09.947Z,100108.31
2022-08-14T16:22:02.691Z,100103.28
2022-08-14T16:24:33.101Z,100098.94
2022-08-14T16:27:01.773Z,100100.91
2022-08-14T16:29:30.884Z,100099.44
2022-08-14T16:32:01.569Z,100099.31
2022-08-14T16:34:44.060Z,100095.03
2022-08-14T16:37:16.495Z,100092.56
2022-08-14T16:39:45.790Z,100082.19
2022-08-14T16:42:39.481Z,100098.41
2022-08-14T16:45:05.489Z,100081.78
2022-08-14T16:47:36.294Z,100079.91
2022-08-14T16:50:08.724Z,100067.38
2022-08-14T16:52:44.235Z,100064.25
2022-08-14T16:55:14.328Z,100072.75
2022-08-14T16:57:54.296Z,100070.59
2022-08-14T17:00:44.147Z,100073.19
2022-08-14T17:03:14.599Z,100064.16
2022-08-14T17:05:46.923Z,100064.47
2022-08-14T17:08:31.566Z,100061.63
2022-08-14T17:11:09.907Z,100059.38
2022-08-14T17:13:58.518Z,100059.50
2022-08-14T17:16:35.562Z,100060.34
2022-08-14T17:19:13.731Z,100058.19
2022-08-14T17:21:46.781Z,100049.75
2022-08-14T17:24:57.040Z,100045.94
2022-08-14T17:27:07.806Z,100041.06
2022-08-14T17:29:44.573Z,100041.22
2022-08-14T17:32:56.226Z,100039.69
2022-08-14T17:35:16.844Z,100040.72
2022-08-14T17:37:55.900Z,100043.66
2022-08-14T17:40:31.011Z,100044.44
2022-08-14T17:43:02.362Z,100054.19
2022-08-14T17:45:46.662Z,100054.28
2022-08-14T17:49:13.907Z,100043.59
2022-08-14T17:51:23.618Z,100044.44
2022-08-14T17:54:02.668Z,100047.34
2022-08-14T17:56:32.425Z,100043.09
2022-08-14T17:59:09.893Z,100048.00
2022-08-14T18:01:45.909Z,100041.06
2022-08-14T18:04:24.900Z,100048.50
2022-08-14T18:07:16.202Z,100042.72
2022-08-14T18:09:57.201Z,100046.66
2022-08-14T18:12:36.483Z,100054.94
2022-08-14T18:15:15.979Z,100047.88
2022-08-14T18:17:52.612Z,100049.41
2022-08-14T18:21:23.595Z,100043.03
2022-08-14T18:23:13.603Z,100046.22
2022-08-14T18:25:48.151Z,100044.94
2022-08-14T18:28:48.998Z,100045.06
2022-08-14T18:31:44.053Z,100043.13
2022-08-14T18:34:32.066Z,100048.41
2022-08-14T18:37:16.812Z,100058.53
2022-08-14T18:40:03.081Z,100054.63
2022-08-14T18:42:45.628Z,100054.66
2022-08-14T18:45:19.051Z,100052.09
2022-08-14T18:48:28.784Z,100054.81
2022-08-14T18:51:45.768Z,100060.13
2022-08-14T18:54:33.284Z,100069.00
2022-08-14T18:57:05.727Z,100065.44
2022-08-14T18:59:42.346Z,100062.16
2022-08-14T19:02:43.042Z,100064.34
2022-08-14T19:05:13.441Z,100068.09
2022-08-14T19:07:48.115Z,100068.56
2022-08-14T19:10:37.468Z,100062.59
2022-08-14T19:13:11.805Z,100069.56
2022-08-14T19:15:43.749Z,100064.56
2022-08-14T19:18:26.171Z,100060.97
2022-08-14T19:20:58.229Z,100065.91
2022-08-14T19:23:43.227Z,100062.81
2022-08-14T19:26:36.476Z,100072.63
2022-08-14T19:29:36.120Z,100072.91
2022-08-14T19:32:40.791Z,100071.16
2022-08-14T19:36:00.309Z,100072.16
2022-08-14T19:38:57.398Z,100068.69
2022-08-14T19:41:30.060Z,100079.19
2022-08-14T19:44:10.377Z,100072.38
2022-08-14T19:47:01.181Z,100070.47
2022-08-14T19:50:09.100Z,100063.06
2022-08-14T19:52:29.745Z,100065.38
2022-08-14T19:54:59.419Z,100063.16
2022-08-14T19:57:29.435Z,100066.38
2022-08-14T20:00:05.693Z,100063.25
2022-08-14T20:03:09.910Z,100063.03
2022-08-14T20:05:45.937Z,100069.41
2022-08-14T20:11:01.056Z,100068.88
2022-08-14T20:11:17.910Z,100072.94
2022-08-14T20:14:10.432Z,100069.97
2022-08-14T20:16:41.087Z,100064.97
2022-08-14T20:19:19.797Z,100068.31
2022-08-14T20:21:58.147Z,100069.63
2022-08-14T20:24:41.203Z,100058.84
2022-08-14T20:27:22.534Z,100059.16
2022-08-14T20:30:35.937Z,100063.19
2022-08-14T20:33:07.785Z,100063.94
2022-08-14T20:35:46.907Z,100072.41
2022-08-14T20:38:28.623Z,100067.41
2022-08-14T20:41:06.621Z,100067.88
2022-08-14T20:43:54.151Z,100067.31
2022-08-14T20:46:29.897Z,100066.63
2022-08-14T20:48:59.949Z,100066.78
2022-08-14T20:51:47.463Z,100060.78
2022-08-14T20:54:34.426Z,100063.97
2022-08-14T20:57:08.256Z,100068.53
2022-08-14T20:59:43.334Z,100063.56
2022-08-14T21:02:29.388Z,100057.44
2022-08-14T21:05:00.587Z,100059.72
2022-08-14T21:07:36.097Z,100060.03
2022-08-14T21:10:36.296Z,100056.59
2022-08-14T21:13:25.694Z,100062.34
2022-08-14T21:15:57.587Z,100050.06
2022-08-14T21:18:29.553Z,100051.22
2022-08-14T21:20:59.184Z,100048.97
2022-08-14T21:23:32.782Z,100054.66
2022-08-14T21:26:01.509Z,100045.13
2022-08-14T21:28:35.326Z,100053.25
2022-08-14T21:31:05.577Z,100049.84
2022-08-14T21:33:37.032Z,100050.16
2022-08-14T21:36:08.356Z,100042.28
2022-08-14T21:38:42.467Z,100043.31
2022-08-14T21:41:43.000Z,100043.59
2022-08-14T21:44:17.130Z,100040.19
2022-08-14T21:46:51.169Z,100042.19
2022-08-14T21:49:25.580Z,100039.47
2022-08-14T21:52:50.834Z,100037.06
2022-08-14T21:54:55.618Z,100033.94
2022-08-14T21:57:56.044Z,100032.50
2022-08-14T22:00:35.893Z,100034.53
2022-08-14T22:03:06.332Z,100031.09
2022-08-14T22:05:39.845Z,100027.69
2022-08-14T22:08:12.332Z,100028.00
2022-08-14T22:10:44.791Z,100031.97
2022-08-14T22:13:15.977Z,100029.69
2022-08-14T22:15:49.576Z,100029.13
2022-08-14T22:18:21.031Z,100034.84
2022-08-14T22:20:56.462Z,100033.41
2022-08-14T22:23:26.336Z,100031.00
2022-08-14T22:25:56.163Z,100031.44
2022-08-14T22:28:33.120Z,100034.47
2022-08-14T22:31:03.300Z,100029.44
2022-08-14T22:33:32.200Z,100032.47
2022-08-14T22:36:25.355Z,100030.03
2022-08-14T22:38:54.199Z,100031.47
2022-08-14T22:41:29.129Z,100027.50
2022-08-14T22:44:03.200Z,100024.34
2022-08-14T22:46:31.621Z,100014.06
2022-08-14T22:48:59.669Z,100018.06
2022-08-14T22:51:48.288Z,100014.19
2022-08-14T22:54:52.222Z,100016.47
2022-08-14T22:57:10.317Z,100015.19
2022-08-14T22:59:39.031Z,100011.19
2022-08-14T23:02:13.000Z,100013.47
2022-08-14T23:04:53.908Z,100004.94
2022-08-14T23:09:00.463Z,100006.22
2022-08-14T23:10:32.370Z,100013.91
2022-08-14T23:13:03.596Z,100006.06
2022-08-14T23:15:32.547Z,100004.78
2022-08-14T23:18:03.237Z,100006.88
2022-08-14T23:20:31.848Z,100001.03
2022-08-14T23:23:03.148Z,100005.00
2022-08-14T23:25:59.582Z,100000.88
2022-08-14T23:28:33.659Z,100010.25
2022-08-14T23:31:14.242Z,100008.81
2022-08-14T23:33:46.046Z,100003.66
2022-08-14T23:36:32.044Z,100009.38
2022-08-14T23:39:10.494Z,100007.91
2022-08-14T23:41:45.747Z,100012.03
2022-08-14T23:44:15.737Z,100011.59
2022-08-14T23:46:44.545Z,100000.16
2022-08-14T23:49:12.666Z,99996.75
2022-08-14T23:51:40.601Z,100001.56
2022-08-14T23:54:48.787Z,99993.75
2022-08-14T23:57:03.082Z,99997.72
2022-08-14T23:59:32.295Z,99985.31
